Time;durP1;ratioP1;P1;durP2;ratioP2;P2;SDS_P1;SDS_P2;PMS_P1;PMS_P2;Temp;Humidity;BMP_temperature;BMP_pressure;BME280_temperature;BME280_humidity;BME280_pressure;Samples;Min_cycle;Max_cycle;Signal;HPM_P1;HPM_P2
2023/05/14 00:02:37;;;;;;;20.95;16.77;;;10.10;99.90;;;;;;6244065;23;20024;-85
2023/05/14 00:05:30;;;;;;;21.27;15.75;;;10.10;99.90;;;;;;6242930;23;20024;-84
2023/05/14 00:08:19;;;;;;;21.13;16.67;;;10.10;99.90;;;;;;6245331;23;20024;-85
2023/05/14 00:11:07;;;;;;;22.63;17.30;;;10.00;99.90;;;;;;6245094;23;20042;-86
2023/05/14 00:13:55;;;;;;;21.50;16.67;;;10.10;99.90;;;;;;6244859;23;20188;-86
2023/05/14 00:16:44;;;;;;;24.40;17.08;;;10.00;99.90;;;;;;6243994;23;20047;-85
2023/05/14 00:19:31;;;;;;;23.88;18.20;;;10.00;99.90;;;;;;6243077;23;20101;-85
2023/05/14 00:22:19;;;;;;;26.75;18.45;;;10.00;99.90;;;;;;6244518;23;20024;-83
2023/05/14 00:25:07;;;;;;;21.73;16.98;;;10.00;99.90;;;;;;6243526;23;20485;-86
2023/05/14 00:27:54;;;;;;;26.75;18.63;;;10.00;99.90;;;;;;6222360;23;20100;-86
2023/05/14 00:30:43;;;;;;;24.65;18.50;;;10.00;99.90;;;;;;6222222;23;20086;-85
2023/05/14 00:33:33;;;;;;;24.25;18.88;;;10.00;99.90;;;;;;6242329;23;20086;-84
2023/05/14 00:36:25;;;;;;;27.05;18.55;;;10.00;99.90;;;;;;6243925;23;20035;-85
2023/05/14 00:39:14;;;;;;;26.43;18.17;;;10.00;99.90;;;;;;6243793;23;20367;-85
2023/05/14 00:42:01;;;;;;;27.55;19.17;;;10.00;99.90;;;;;;6245297;23;20051;-84
2023/05/14 00:44:48;;;;;;;23.40;17.45;;;10.00;99.90;;;;;;6245757;23;20051;-85
2023/05/14 00:47:38;;;;;;;24.30;17.83;;;10.00;99.90;;;;;;6245228;23;20031;-86
2023/05/14 00:50:26;;;;;;;22.52;16.85;;;10.00;99.90;;;;;;6244965;23;20274;-85
2023/05/14 00:53:17;;;;;;;24.23;18.35;;;10.00;99.90;;;;;;6244630;23;20024;-86
2023/05/14 00:56:07;;;;;;;23.88;17.92;;;10.00;99.90;;;;;;6252328;22;20431;-83
2023/05/14 00:58:54;;;;;;;23.02;18.25;;;10.00;99.90;;;;;;6243160;23;20028;-85
2023/05/14 01:01:42;;;;;;;25.23;19.30;;;10.00;99.90;;;;;;6244041;23;20094;-85
2023/05/14 01:04:34;;;;;;;25.25;18.92;;;10.00;99.90;;;;;;6245809;23;20024;-84
2023/05/14 01:07:50;;;;;;;27.08;19.27;;;10.00;99.90;;;;;;6247718;22;20028;-85
2023/05/14 01:11:07;;;;;;;28.80;20.20;;;10.00;99.90;;;;;;6244531;23;20052;-84
2023/05/14 01:14:20;;;;;;;25.80;19.75;;;10.00;99.90;;;;;;6246128;23;20095;-84
2023/05/14 01:17:11;;;;;;;28.70;20.45;;;10.00;99.90;;;;;;6245106;23;20032;-85
2023/05/14 01:19:59;;;;;;;26.38;20.05;;;9.90;99.90;;;;;;6246050;23;20466;-85
2023/05/14 01:22:46;;;;;;;27.40;20.77;;;10.00;99.90;;;;;;6244455;23;20020;-85
2023/05/14 01:25:34;;;;;;;27.38;20.75;;;9.90;99.90;;;;;;6247495;23;20442;-85
2023/05/14 01:28:30;;;;;;;30.70;21.35;;;9.90;99.90;;;;;;6247755;22;20102;-85
2023/05/14 01:31:27;;;;;;;28.35;21.05;;;9.80;99.90;;;;;;6246126;23;20028;-85
2023/05/14 01:34:18;;;;;;;27.70;21.02;;;9.90;99.90;;;;;;6246332;23;20020;-84
2023/05/14 01:37:06;;;;;;;31.67;23.95;;;9.90;99.90;;;;;;6248217;22;20024;-86
2023/05/14 01:39:55;;;;;;;33.92;23.88;;;9.90;99.90;;;;;;6245524;23;20028;-86
2023/05/14 01:42:43;;;;;;;31.00;21.88;;;9.80;99.90;;;;;;6247805;22;20032;-85
2023/05/14 01:45:33;;;;;;;32.63;23.38;;;9.80;99.90;;;;;;6247397;22;20024;-84
2023/05/14 01:48:23;;;;;;;32.97;23.38;;;9.80;99.90;;;;;;6246845;23;20020;-84
2023/05/14 01:51:13;;;;;;;35.17;24.63;;;9.80;99.90;;;;;;6247653;23;20111;-84
2023/05/14 01:54:01;;;;;;;33.70;24.48;;;9.80;99.90;;;;;;6246759;23;20024;-84
2023/05/14 01:56:49;;;;;;;32.55;23.50;;;9.80;99.90;;;;;;6246088;23;20035;-84
2023/05/14 01:59:36;;;;;;;32.05;23.17;;;9.80;99.90;;;;;;6244272;23;20051;-84
2023/05/14 02:02:24;;;;;;;30.95;22.85;;;9.80;99.90;;;;;;6245505;23;20056;-86
2023/05/14 02:05:12;;;;;;;38.25;24.55;;;9.80;99.90;;;;;;6246445;23;20024;-86
2023/05/14 02:07:59;;;;;;;33.75;23.92;;;9.70;99.90;;;;;;6223016;23;20415;-85
2023/05/14 02:10:48;;;;;;;29.08;22.25;;;9.70;99.90;;;;;;6246528;23;20100;-84
2023/05/14 02:13:36;;;;;;;30.42;22.05;;;9.70;99.90;;;;;;6244623;23;20032;-84
2023/05/14 02:16:23;;;;;;;38.33;23.15;;;9.60;99.90;;;;;;6245197;23;20055;-85
2023/05/14 02:19:11;;;;;;;29.58;21.63;;;9.50;99.90;;;;;;6245417;23;20439;-84
2023/05/14 02:21:59;;;;;;;28.20;21.75;;;9.40;99.90;;;;;;6245345;23;20098;-84
2023/05/14 02:24:48;;;;;;;31.00;21.65;;;9.30;99.90;;;;;;6245343;23;20446;-85
2023/05/14 02:27:38;;;;;;;28.80;20.83;;;9.20;99.90;;;;;;6243313;23;20051;-86
2023/05/14 02:30:28;;;;;;;23.05;16.42;;;9.10;99.90;;;;;;6247052;23;20028;-86
2023/05/14 02:33:18;;;;;;;29.98;22.02;;;9.00;99.90;;;;;;6245077;23;20155;-86
2023/05/14 02:36:05;;;;;;;31.73;21.77;;;9.00;99.90;;;;;;6243072;23;20085;-85
2023/05/14 02:38:57;;;;;;;33.88;23.38;;;8.90;99.90;;;;;;6244873;23;20028;-86
2023/05/14 02:41:44;;;;;;;29.77;20.65;;;8.90;99.90;;;;;;6242191;23;20663;-84
2023/05/14 02:44:31;;;;;;;33.60;22.63;;;8.80;99.90;;;;;;6245982;23;20059;-85
2023/05/14 02:47:18;;;;;;;31.58;22.33;;;8.80;99.90;;;;;;6243631;23;20028;-85
2023/05/14 02:50:06;;;;;;;32.60;21.45;;;8.80;99.90;;;;;;6243900;23;20384;-86
2023/05/14 02:52:55;;;;;;;27.92;21.33;;;8.70;99.90;;;;;;6245824;23;20063;-84
2023/05/14 02:55:45;;;;;;;33.50;22.42;;;8.80;99.90;;;;;;6245962;22;20032;-85
2023/05/14 02:58:33;;;;;;;36.92;24.48;;;8.80;99.90;;;;;;6243484;23;20107;-86
2023/05/14 03:01:23;;;;;;;37.55;24.55;;;8.80;99.90;;;;;;6246280;22;20127;-86
2023/05/14 03:04:12;;;;;;;37.17;25.38;;;8.90;99.90;;;;;;6244795;23;20031;-86
2023/05/14 03:07:00;;;;;;;37.95;25.00;;;8.90;99.90;;;;;;6245140;23;20093;-86
2023/05/14 03:09:47;;;;;;;39.30;25.67;;;8.90;99.90;;;;;;6244648;23;20039;-85
2023/05/14 03:12:37;;;;;;;40.38;26.20;;;8.90;99.90;;;;;;6244764;23;20144;-85
2023/05/14 03:15:24;;;;;;;41.40;27.40;;;8.90;99.90;;;;;;6245745;23;20097;-86
2023/05/14 03:18:12;;;;;;;38.75;25.92;;;9.00;99.90;;;;;;6246486;22;20434;-85
2023/05/14 03:21:02;;;;;;;40.28;27.17;;;9.00;99.90;;;;;;6246657;22;20020;-86
2023/05/14 03:23:50;;;;;;;39.90;26.95;;;8.90;99.90;;;;;;6244665;23;20020;-85
2023/05/14 03:26:38;;;;;;;42.42;28.17;;;8.90;99.90;;;;;;6243110;23;20135;-86
2023/05/14 03:29:25;;;;;;;43.67;28.38;;;9.00;99.90;;;;;;6244204;23;20158;-86
2023/05/14 03:32:13;;;;;;;46.92;28.52;;;9.00;99.90;;;;;;6244718;23;20034;-86
2023/05/14 03:35:02;;;;;;;51.60;29.70;;;9.00;99.90;;;;;;6245189;23;20027;-85
2023/05/14 03:37:51;;;;;;;43.60;29.42;;;9.00;99.90;;;;;;6245920;22;20074;-85
2023/05/14 03:40:39;;;;;;;47.25;28.77;;;9.00;99.90;;;;;;6243552;23;20027;-85
2023/05/14 03:43:26;;;;;;;48.17;28.90;;;9.00;99.90;;;;;;6244454;23;20034;-85
2023/05/14 03:46:13;;;;;;;45.92;28.13;;;9.00;99.90;;;;;;6246194;23;20680;-85
2023/05/14 03:49:00;;;;;;;45.28;27.30;;;9.00;99.90;;;;;;6244425;23;20367;-85
2023/05/14 03:51:47;;;;;;;50.78;29.48;;;9.00;99.90;;;;;;6246312;23;20060;-86
2023/05/14 03:54:37;;;;;;;47.75;29.55;;;9.00;99.90;;;;;;6246290;23;20146;-85
2023/05/14 03:57:29;;;;;;;47.08;28.83;;;9.10;99.90;;;;;;6246041;22;20083;-84
2023/05/14 04:00:16;;;;;;;46.53;29.93;;;9.10;99.90;;;;;;6244801;23;20471;-86
2023/05/14 04:03:03;;;;;;;50.15;30.08;;;9.10;99.90;;;;;;6244921;23;20024;-86
2023/05/14 04:05:50;;;;;;;49.20;29.00;;;9.10;99.90;;;;;;6246949;22;20086;-85
2023/05/14 04:08:37;;;;;;;46.00;29.33;;;9.10;99.90;;;;;;6243750;23;20086;-85
2023/05/14 04:11:27;;;;;;;49.30;30.48;;;9.10;99.90;;;;;;6244213;23;20371;-85
2023/05/14 04:14:15;;;;;;;45.72;28.23;;;9.10;99.90;;;;;;6245645;22;20082;-85
2023/05/14 04:17:04;;;;;;;47.58;29.30;;;9.10;99.90;;;;;;6244560;23;20028;-86
2023/05/14 04:19:54;;;;;;;43.35;28.52;;;9.20;99.90;;;;;;6244263;23;20058;-85
2023/05/14 04:22:41;;;;;;;46.35;28.05;;;9.20;99.90;;;;;;6252754;23;20020;-85
2023/05/14 04:25:29;;;;;;;43.72;26.20;;;9.20;99.90;;;;;;6245715;22;20024;-84
2023/05/14 04:28:16;;;;;;;52.08;31.55;;;9.20;99.90;;;;;;6246302;22;20031;-85
2023/05/14 04:31:08;;;;;;;49.55;30.55;;;9.20;99.90;;;;;;6241421;23;20122;-84
2023/05/14 04:33:55;;;;;;;52.70;31.75;;;9.20;99.90;;;;;;6242928;23;20024;-85
2023/05/14 04:36:42;;;;;;;52.35;32.05;;;9.20;99.90;;;;;;6244064;23;20039;-85
2023/05/14 04:39:29;;;;;;;50.22;30.83;;;9.20;99.90;;;;;;6245951;23;20028;-86
2023/05/14 04:42:20;;;;;;;46.83;29.23;;;9.20;99.90;;;;;;6245427;23;20038;-86
2023/05/14 04:45:08;;;;;;;47.78;30.75;;;9.30;99.90;;;;;;6247585;22;20052;-85
2023/05/14 04:47:55;;;;;;;49.08;29.60;;;9.30;99.90;;;;;;6245498;23;20020;-85
2023/05/14 04:50:52;;;;;;;44.80;29.20;;;9.40;99.90;;;;;;6246520;23;20397;-86
2023/05/14 04:53:39;;;;;;;46.85;29.30;;;9.40;99.90;;;;;;6245726;23;20127;-85
2023/05/14 04:56:26;;;;;;;44.30;27.73;;;9.40;99.90;;;;;;6245811;23;20020;-84
2023/05/14 04:59:13;;;;;;;41.42;26.02;;;9.40;99.90;;;;;;6244992;23;20427;-84
2023/05/14 05:02:01;;;;;;;46.03;27.20;;;9.40;99.90;;;;;;6245370;23;20024;-85
2023/05/14 05:04:48;;;;;;;45.20;26.20;;;9.40;99.90;;;;;;6245839;23;20028;-85
2023/05/14 05:07:35;;;;;;;41.80;25.35;;;9.40;99.90;;;;;;6244449;23;20423;-86
2023/05/14 05:10:22;;;;;;;43.15;25.60;;;9.50;99.90;;;;;;6246781;23;20052;-85
2023/05/14 05:13:10;;;;;;;39.75;25.58;;;9.50;99.90;;;;;;6243050;23;20024;-85
2023/05/14 05:15:57;;;;;;;41.97;26.33;;;9.50;99.90;;;;;;6242755;23;20163;-85
2023/05/14 05:18:45;;;;;;;42.28;27.77;;;9.60;99.90;;;;;;6247047;23;20446;-88
2023/05/14 05:21:32;;;;;;;42.38;26.13;;;9.60;99.90;;;;;;6246075;23;20304;-88
2023/05/14 05:24:19;;;;;;;36.30;25.23;;;9.70;99.90;;;;;;6244404;23;20027;-87
2023/05/14 05:27:07;;;;;;;36.17;24.67;;;9.70;99.90;;;;;;6244068;23;20024;-89
2023/05/14 05:29:54;;;;;;;35.47;25.27;;;9.80;99.90;;;;;;6244430;23;20684;-90
2023/05/14 05:32:44;;;;;;;42.67;26.02;;;9.80;99.90;;;;;;6247116;23;20028;-84
2023/05/14 05:35:36;;;;;;;35.92;25.20;;;9.90;99.90;;;;;;6246201;23;20086;-85
2023/05/14 05:38:23;;;;;;;29.30;19.33;;;10.00;99.90;;;;;;6246091;23;20038;-85
2023/05/14 05:41:10;;;;;;;33.15;23.25;;;10.10;99.90;;;;;;6245325;23;20028;-86
2023/05/14 05:43:58;;;;;;;39.03;25.15;;;10.20;99.90;;;;;;6246979;23;20084;-88
2023/05/14 05:46:45;;;;;;;31.27;23.48;;;10.30;99.90;;;;;;6225061;23;20052;-86
2023/05/14 05:49:36;;;;;;;30.75;21.52;;;10.20;99.90;;;;;;6244592;23;20034;-88
2023/05/14 05:52:23;;;;;;;28.83;22.42;;;10.30;99.90;;;;;;6247755;23;20075;-87
2023/05/14 05:55:10;;;;;;;26.77;20.35;;;10.40;99.90;;;;;;6246932;23;20028;-85
2023/05/14 05:57:58;;;;;;;26.38;19.63;;;10.40;99.90;;;;;;6245627;23;20030;-85
2023/05/14 06:01:01;;;;;;;25.15;19.08;;;10.40;99.90;;;;;;6245087;23;20408;-87
2023/05/14 06:03:50;;;;;;;26.35;20.95;;;10.40;99.90;;;;;;6245273;23;20024;-85
2023/05/14 06:06:37;;;;;;;23.67;18.92;;;10.50;99.90;;;;;;6246940;23;20094;-85
2023/05/14 06:09:26;;;;;;;26.30;20.10;;;10.60;99.90;;;;;;6245065;23;20031;-85
2023/05/14 06:12:15;;;;;;;26.75;21.10;;;10.60;99.90;;;;;;6244222;23;20040;-86
2023/05/14 06:15:02;;;;;;;28.48;22.30;;;10.60;99.90;;;;;;6247725;23;20020;-86
2023/05/14 06:17:50;;;;;;;31.42;22.52;;;10.50;99.90;;;;;;6246824;23;20024;-86
2023/05/14 06:20:40;;;;;;;28.05;21.98;;;10.50;99.90;;;;;;6246503;23;20027;-85
2023/05/14 06:23:28;;;;;;;28.77;22.33;;;10.50;99.90;;;;;;6246517;23;20125;-86
2023/05/14 06:26:16;;;;;;;31.83;22.98;;;10.50;99.90;;;;;;6247046;23;20028;-85
2023/05/14 06:29:03;;;;;;;28.55;21.60;;;10.50;99.90;;;;;;6245880;23;20024;-85
2023/05/14 06:31:50;;;;;;;30.77;22.08;;;10.60;99.90;;;;;;6245690;23;20038;-86
2023/05/14 06:34:38;;;;;;;29.85;22.33;;;10.70;99.90;;;;;;6246271;23;20034;-83
2023/05/14 06:37:25;;;;;;;27.67;22.65;;;10.70;99.90;;;;;;6248998;23;20375;-87
2023/05/14 06:40:14;;;;;;;26.95;20.98;;;10.70;99.90;;;;;;6246030;23;20423;-84
2023/05/14 06:43:05;;;;;;;27.63;21.13;;;10.80;99.90;;;;;;6245024;23;20319;-85
2023/05/14 06:45:52;;;;;;;27.00;20.83;;;10.70;99.90;;;;;;6245600;23;20028;-86
2023/05/14 06:48:40;;;;;;;25.02;20.05;;;10.80;99.90;;;;;;6225110;23;20024;-86
2023/05/14 06:51:27;;;;;;;25.40;20.27;;;10.80;99.90;;;;;;6244953;23;20400;-86
2023/05/14 06:54:14;;;;;;;25.65;19.92;;;10.80;99.90;;;;;;6223863;23;20032;-86
2023/05/14 06:57:02;;;;;;;23.55;19.15;;;10.90;99.90;;;;;;6261680;22;20024;-88
2023/05/14 07:00:20;;;;;;;24.80;19.70;;;11.00;99.90;;;;;;6245881;23;20035;-85
2023/05/14 07:03:07;;;;;;;26.48;19.00;;;11.20;99.90;;;;;;6247227;23;20020;-86
2023/05/14 07:05:55;;;;;;;24.67;20.17;;;11.30;99.90;;;;;;6245771;23;20020;-85
2023/05/14 07:08:46;;;;;;;21.65;17.30;;;11.50;99.90;;;;;;6247031;23;20357;-86
2023/05/14 07:11:36;;;;;;;18.88;15.05;;;11.70;99.90;;;;;;6245394;23;20068;-83
2023/05/14 07:14:23;;;;;;;19.33;15.18;;;11.90;99.90;;;;;;6247565;23;20376;-84
2023/05/14 07:17:13;;;;;;;19.27;14.88;;;12.00;99.90;;;;;;6246655;23;20024;-83
2023/05/14 07:20:01;;;;;;;20.15;16.63;;;12.20;99.90;;;;;;6246587;23;20051;-86
2023/05/14 07:22:52;;;;;;;18.95;15.90;;;12.20;99.90;;;;;;6248953;22;20038;-84
2023/05/14 07:25:39;;;;;;;21.38;15.70;;;12.10;99.90;;;;;;6260864;22;20020;-84
2023/05/14 07:28:26;;;;;;;16.95;13.98;;;12.10;99.90;;;;;;6260196;22;20083;-86
2023/05/14 07:31:16;;;;;;;16.33;13.55;;;12.30;99.90;;;;;;6259070;23;20024;-85
2023/05/14 07:34:04;;;;;;;17.50;13.88;;;12.60;99.90;;;;;;6260903;22;20059;-86
2023/05/14 07:36:51;;;;;;;15.95;12.55;;;12.50;99.90;;;;;;6260058;23;20062;-85
2023/05/14 07:39:40;;;;;;;14.25;12.60;;;12.60;99.90;;;;;;6259234;23;20094;-87
2023/05/14 07:42:30;;;;;;;18.67;14.43;;;12.50;1.00;;;;;;6261107;23;20038;-83
2023/05/14 07:45:23;;;;;;;19.08;13.88;;;12.60;99.90;;;;;;6267953;23;20008;-82
2023/05/14 07:48:10;;;;;;;16.63;13.88;;;12.70;32.40;;;;;;6270673;22;20028;-84
2023/05/14 07:50:58;;;;;;;21.42;15.10;;;12.70;99.90;;;;;;6268350;22;20076;-85
2023/05/14 07:53:46;;;;;;;17.90;14.27;;;12.60;99.90;;;;;;6262674;23;20042;-84
2023/05/14 07:56:33;;;;;;;17.88;14.50;;;12.60;43.00;;;;;;6280873;22;20039;-85
2023/05/14 07:59:22;;;;;;;17.38;13.50;;;12.70;99.90;;;;;;6261514;23;20024;-84
2023/05/14 08:02:11;;;;;;;14.98;13.30;;;12.90;1.00;;;;;;6259993;23;20085;-85
2023/05/14 08:05:00;;;;;;;15.48;12.00;;;13.10;99.90;;;;;;6260183;23;20024;-85
2023/05/14 08:08:42;;;;;;;13.13;11.60;;;13.30;1.00;;;;;;6262355;22;20020;-85
2023/05/14 08:11:31;;;;;;;14.25;11.85;;;13.60;99.90;;;;;;6248934;23;20035;-86
2023/05/14 08:14:20;;;;;;;15.68;13.02;;;13.70;1.00;;;;;;6257047;22;20113;-86
2023/05/14 08:17:07;;;;;;;14.23;12.13;;;13.70;99.90;;;;;;6255656;23;20028;-84
2023/05/14 08:19:54;;;;;;;16.27;11.70;;;13.70;1.00;;;;;;6255662;23;20024;-85
2023/05/14 08:22:44;;;;;;;15.15;12.38;;;13.60;99.90;;;;;;6255566;23;20032;-86
2023/05/14 08:25:32;;;;;;;13.25;11.15;;;13.70;99.90;;;;;;6252804;23;20024;-86
2023/05/14 08:28:20;;;;;;;13.02;11.63;;;13.80;99.90;;;;;;6255209;22;20032;-86
2023/05/14 08:31:13;;;;;;;14.07;11.82;;;14.00;99.90;;;;;;6248351;23;20031;-86
2023/05/14 08:34:02;;;;;;;14.77;11.82;;;14.10;1.00;;;;;;6243718;23;20024;-87
2023/05/14 08:36:49;;;;;;;12.65;11.27;;;14.20;1.00;;;;;;6245675;23;20028;-88
2023/05/14 08:39:39;;;;;;;11.00;9.63;;;14.50;99.90;;;;;;6247485;22;20028;-85
2023/05/14 08:42:27;;;;;;;16.15;11.50;;;14.80;99.90;;;;;;6244480;23;20027;-86
2023/05/14 08:45:19;;;;;;;12.75;10.77;;;14.90;99.90;;;;;;6246730;23;20097;-87
2023/05/14 08:48:09;;;;;;;14.00;11.95;;;15.20;99.90;;;;;;6248543;22;20028;-87
2023/05/14 08:50:58;;;;;;;12.48;10.75;;;15.50;1.00;;;;;;6246909;22;20028;-86
2023/05/14 08:53:46;;;;;;;13.07;10.90;;;15.90;1.00;;;;;;6245135;23;20024;-88
2023/05/14 08:56:34;;;;;;;14.63;9.43;;;16.40;1.00;;;;;;6246082;23;20028;-89
2023/05/14 08:59:34;;;;;;;10.80;9.63;;;16.90;99.90;;;;;;6224000;23;20024;-85
2023/05/14 09:02:28;;;;;;;14.98;9.95;;;17.00;99.90;;;;;;6245981;23;20047;-87
2023/05/14 09:05:18;;;;;;;10.48;9.07;;;17.40;99.90;;;;;;6226327;23;20055;-87
2023/05/14 09:08:06;;;;;;;11.77;9.40;;;17.60;99.90;;;;;;6225561;23;20024;-88
2023/05/14 09:10:53;;;;;;;11.25;8.52;;;17.80;22.20;;;;;;6223593;23;20424;-87
2023/05/14 09:13:42;;;;;;;10.07;8.98;;;18.10;1.00;;;;;;6245116;23;20447;-87
2023/05/14 09:16:29;;;;;;;11.88;9.52;;;18.00;1.00;;;;;;6245365;23;20027;-87
2023/05/14 09:19:20;;;;;;;10.23;9.23;;;17.70;1.00;;;;;;6245962;23;20039;-87
2023/05/14 09:22:10;;;;;;;16.00;9.55;;;17.30;1.00;;;;;;6245426;23;20524;-87
2023/05/14 09:25:16;;;;;;;9.25;8.15;;;17.10;1.00;;;;;;6245363;23;20027;-88
2023/05/14 09:28:08;;;;;;;10.35;8.68;;;17.20;1.00;;;;;;6247482;23;20099;-89
2023/05/14 09:31:00;;;;;;;17.10;13.98;;;16.80;1.00;;;;;;6247416;23;20081;-89
2023/05/14 09:33:51;;;;;;;11.90;9.68;;;16.60;1.00;;;;;;6246060;23;20047;-89
2023/05/14 09:39:23;;;;;;;11.25;9.95;;;16.70;1.00;;;;;;6122397;23;20034;-86
2023/05/14 09:42:12;;;;;;;14.70;11.43;;;16.40;1.00;;;;;;6124501;23;20402;-88
2023/05/14 09:45:00;;;;;;;10.30;9.18;;;16.70;1.00;;;;;;6102212;23;20441;-87
2023/05/14 09:47:50;;;;;;;15.68;9.10;;;17.00;1.00;;;;;;6105084;23;20022;-87
2023/05/14 09:50:42;;;;;;;12.15;10.43;;;17.20;1.00;;;;;;6129757;23;20326;-88
2023/05/14 09:53:34;;;;;;;10.98;9.18;;;17.20;1.00;;;;;;6104411;23;20356;-91
2023/05/14 09:56:24;;;;;;;11.23;9.43;;;17.50;1.00;;;;;;6101072;23;20034;-91
2023/05/14 09:59:26;;;;;;;10.85;7.80;;;18.10;1.00;;;;;;6122700;23;20433;-92
2023/05/14 10:02:25;;;;;;;8.15;7.15;;;19.40;1.00;;;;;;6122549;23;20088;-91
2023/05/14 10:05:14;;;;;;;9.98;5.75;;;19.90;99.90;;;;;;6101477;23;20107;-87
2023/05/14 10:08:33;;;;;;;6.25;5.63;;;20.50;99.90;;;;;;6121047;23;20025;-89
2023/05/14 10:11:25;;;;;;;7.63;6.00;;;21.20;99.90;;;;;;6102007;23;20099;-91
2023/05/14 10:14:36;;;;;;;7.85;6.63;;;21.30;99.90;;;;;;6101447;23;20041;-89
2023/05/14 10:17:30;;;;;;;8.85;6.43;;;20.30;99.90;;;;;;6123051;23;20034;-88
2023/05/14 10:20:17;;;;;;;7.47;6.07;;;19.00;99.90;;;;;;6101839;23;20114;-91
2023/05/14 10:23:06;;;;;;;8.32;7.25;;;18.20;99.90;;;;;;6103360;23;20110;-89
2023/05/14 10:25:55;;;;;;;9.32;7.07;;;17.40;99.90;;;;;;6123263;23;20032;-90
2023/05/14 10:28:45;;;;;;;9.80;7.47;;;17.00;99.90;;;;;;6122438;23;20030;-87
2023/05/14 10:31:55;;;;;;;12.30;8.82;;;16.50;99.90;;;;;;6106292;23;20445;-91
2023/05/14 10:34:42;;;;;;;10.30;7.38;;;16.40;99.90;;;;;;6123813;23;20335;-88
2023/05/14 10:37:34;;;;;;;8.15;7.05;;;16.50;99.90;;;;;;6126002;23;20033;-90
2023/05/14 10:40:24;;;;;;;8.83;7.43;;;18.20;1.00;;;;;;6101685;23;20438;-89
2023/05/14 10:43:14;;;;;;;7.00;6.28;;;19.00;99.90;;;;;;6121777;23;20253;-89
2023/05/14 10:46:03;;;;;;;6.43;5.43;;;19.80;99.90;;;;;;6102681;23;20026;-90
2023/05/14 10:48:50;;;;;;;6.38;5.75;;;20.10;99.90;;;;;;6105648;23;20029;-88
2023/05/14 10:51:39;;;;;;;14.07;6.30;;;20.10;99.90;;;;;;6101691;23;20360;-89
2023/05/14 10:54:27;;;;;;;5.57;4.93;;;20.00;99.90;;;;;;6102068;23;20026;-91
2023/05/14 10:57:17;;;;;;;5.70;5.05;;;19.40;99.90;;;;;;6121807;23;20026;-88
2023/05/14 11:00:07;;;;;;;7.07;6.32;;;19.30;99.90;;;;;;6120302;23;20041;-88
2023/05/14 11:02:58;;;;;;;7.43;6.28;;;18.50;99.90;;;;;;6101848;23;20026;-91
2023/05/14 11:05:47;;;;;;;7.22;6.35;;;18.30;99.90;;;;;;6122117;23;20048;-88
2023/05/14 11:08:39;;;;;;;7.88;6.50;;;18.00;99.90;;;;;;6121977;23;20026;-90
2023/05/14 11:11:27;;;;;;;7.47;6.55;;;17.70;99.90;;;;;;6102124;23;20022;-89
2023/05/14 11:14:14;;;;;;;8.10;6.00;;;18.00;99.90;;;;;;6100718;23;20026;-92
2023/05/14 11:17:02;;;;;;;6.88;6.05;;;19.40;99.90;;;;;;6121943;23;20034;-91
2023/05/14 11:19:49;;;;;;;8.48;5.93;;;20.00;99.90;;;;;;6103324;23;20178;-89
2023/05/14 11:22:38;;;;;;;5.90;4.70;;;19.50;99.90;;;;;;6120014;23;20026;-90
2023/05/14 11:25:26;;;;;;;5.63;4.60;;;21.20;99.90;;;;;;6103194;23;20440;-90
2023/05/14 11:28:15;;;;;;;6.00;5.00;;;22.00;99.90;;;;;;6103336;23;20310;-92
2023/05/14 11:31:10;;;;;;;5.80;5.20;;;21.70;99.90;;;;;;6105311;23;20018;-89
2023/05/14 11:34:07;;;;;;;9.52;5.97;;;22.10;99.90;;;;;;6102983;23;20040;-89
2023/05/14 11:36:54;;;;;;;6.47;4.88;;;22.80;99.90;;;;;;6123710;23;20026;-94
2023/05/14 11:39:51;;;;;;;6.13;5.13;;;23.50;99.90;;;;;;6074325;23;20121;-88
2023/05/14 11:42:40;;;;;;;5.25;4.47;;;23.10;99.90;;;;;;6094753;23;20042;-88
2023/05/14 11:45:31;;;;;;;7.13;4.32;;;23.40;99.90;;;;;;6074371;23;20054;-89
2023/05/14 11:48:20;;;;;;;6.70;5.05;;;22.80;99.90;;;;;;6073120;23;20034;-89
2023/05/14 11:51:10;;;;;;;6.28;5.15;;;21.60;99.90;;;;;;6075620;23;20038;-91
2023/05/14 11:54:13;;;;;;;5.65;5.00;;;20.80;99.90;;;;;;6077301;23;20030;-95
2023/05/14 11:57:07;;;;;;;6.20;4.55;;;20.90;99.90;;;;;;6093818;23;20037;-91
2023/05/14 11:59:58;;;;;;;6.18;4.40;;;20.70;99.90;;;;;;6093820;23;20127;-88
2023/05/14 12:02:49;;;;;;;5.28;4.47;;;20.30;99.90;;;;;;6073885;23;20042;-91
2023/05/14 12:05:41;;;;;;;5.47;4.13;;;19.70;99.90;;;;;;6074314;23;20023;-92
2023/05/14 12:08:30;;;;;;;6.82;4.35;;;20.80;99.90;;;;;;6073011;23;20026;-92
2023/05/14 12:11:20;;;;;;;5.50;3.60;;;21.40;99.90;;;;;;6073414;23;20080;-92
2023/05/14 12:14:28;;;;;;;6.70;3.97;;;21.50;99.90;;;;;;6091759;23;20026;-91
2023/05/14 12:17:18;;;;;;;5.28;4.78;;;20.10;99.90;;;;;;6049269;23;20022;-89
2023/05/14 12:20:10;;;;;;;8.73;5.88;;;19.10;99.90;;;;;;6092233;23;20136;-89
2023/05/14 12:22:57;;;;;;;7.45;6.75;;;18.10;99.90;;;;;;6093742;23;20034;-90
2023/05/14 12:25:54;;;;;;;7.38;6.57;;;17.70;99.90;;;;;;6093472;23;20019;-92
2023/05/14 12:28:42;;;;;;;8.25;7.20;;;17.40;99.90;;;;;;6093237;23;20034;-94
2023/05/14 12:31:31;;;;;;;8.15;6.85;;;17.20;99.90;;;;;;6072726;23;20030;-91
2023/05/14 12:34:19;;;;;;;7.70;6.53;;;17.20;99.90;;;;;;6094382;23;20465;-92
2023/05/14 12:37:15;;;;;;;7.90;5.53;;;18.60;99.90;;;;;;6077590;23;20027;-87
2023/05/14 12:40:05;;;;;;;8.70;4.50;;;21.30;99.90;;;;;;6100543;23;20038;-85
2023/05/14 12:42:52;;;;;;;6.25;5.32;;;22.30;99.90;;;;;;6101769;23;20034;-88
2023/05/14 12:45:43;;;;;;;9.27;6.05;;;21.10;99.90;;;;;;6101464;23;20037;-91
2023/05/14 12:48:30;;;;;;;5.22;4.72;;;19.10;99.90;;;;;;6101664;23;20118;-88
2023/05/14 12:51:19;;;;;;;10.18;6.28;;;18.20;99.90;;;;;;6104726;23;20022;-90
2023/05/14 12:54:07;;;;;;;9.13;6.78;;;17.50;99.90;;;;;;6120897;23;20108;-89
2023/05/14 12:56:55;;;;;;;15.48;9.52;;;16.90;99.90;;;;;;6101318;23;20029;-89
2023/05/14 12:59:45;;;;;;;32.10;17.05;;;16.10;1.00;;;;;;6101422;23;20033;-87
2023/05/14 13:02:34;;;;;;;25.90;14.80;;;15.30;52.50;;;;;;6121624;23;20022;-86
2023/05/14 13:05:32;;;;;;;19.15;13.82;;;14.90;99.90;;;;;;6121320;23;20641;-88
2023/05/14 13:08:24;;;;;;;18.08;14.70;;;14.50;1.00;;;;;;6121208;23;20570;-90
2023/05/14 13:11:12;;;;;;;15.60;11.38;;;14.30;44.20;;;;;;6101709;23;20036;-87
2023/05/14 13:14:01;;;;;;;11.63;9.35;;;14.30;99.90;;;;;;6102270;23;20036;-86
2023/05/14 13:16:48;;;;;;;18.13;9.57;;;14.10;99.90;;;;;;6123312;23;20026;-93
2023/05/14 13:19:36;;;;;;;18.10;12.32;;;13.90;99.90;;;;;;6127264;23;20033;-86
2023/05/14 13:22:23;;;;;;;16.42;12.82;;;13.70;1.00;;;;;;6122819;23;20029;-90
2023/05/14 13:25:13;;;;;;;17.15;14.23;;;13.60;99.90;;;;;;6120997;23;20022;-88
2023/05/14 13:28:00;;;;;;;18.85;14.60;;;13.60;1.00;;;;;;6122781;23;20030;-85
2023/05/14 13:31:04;;;;;;;20.73;13.90;;;13.80;1.00;;;;;;6121112;23;20060;-89
2023/05/14 13:33:53;;;;;;;15.05;13.43;;;13.90;99.90;;;;;;6121711;23;20096;-85
2023/05/14 13:36:42;;;;;;;17.75;13.98;;;14.00;99.90;;;;;;6120733;23;20026;-85
2023/05/14 13:39:34;;;;;;;17.75;13.98;;;14.20;1.00;;;;;;6090817;23;20140;-87
2023/05/14 13:42:22;;;;;;;16.90;12.38;;;14.40;99.90;;;;;;6092198;23;20392;-85
2023/05/14 13:45:10;;;;;;;15.80;11.10;;;14.50;99.90;;;;;;6089973;23;20092;-85
2023/05/14 13:47:57;;;;;;;13.13;10.13;;;14.80;99.90;;;;;;6091468;23;20022;-85
2023/05/14 13:51:15;;;;;;;12.20;9.73;;;15.50;1.00;;;;;;6070249;23;20030;-88
2023/05/14 13:54:47;;;;;;;11.55;8.13;;;16.20;1.00;;;;;;6091087;23;20041;-88
2023/05/14 13:57:38;;;;;;;10.43;7.80;;;16.70;99.90;;;;;;6091620;23;20042;-86
2023/05/14 14:00:26;;;;;;;8.50;6.35;;;16.70;1.00;;;;;;6097530;23;20044;-87
2023/05/14 14:03:14;;;;;;;7.47;5.72;;;17.60;99.90;;;;;;6093948;23;20275;-88
2023/05/14 14:06:01;;;;;;;8.60;6.13;;;17.80;1.00;;;;;;6093461;23;20425;-89
2023/05/14 14:08:50;;;;;;;11.35;5.80;;;17.30;99.90;;;;;;6073558;23;20452;-87
2023/05/14 14:11:39;;;;;;;9.60;7.05;;;16.90;99.90;;;;;;6075009;23;20022;-87
2023/05/14 14:14:27;;;;;;;11.43;7.60;;;16.60;99.90;;;;;;6073299;23;20041;-89
2023/05/14 14:17:14;;;;;;;20.05;10.20;;;15.90;99.90;;;;;;6094405;23;20026;-88
2023/05/14 14:20:08;;;;;;;7.25;6.03;;;15.50;99.90;;;;;;6072794;23;20042;-87
2023/05/14 14:22:58;;;;;;;7.57;6.47;;;15.30;99.90;;;;;;6177463;23;20034;-88
2023/05/14 14:25:46;;;;;;;6.63;5.95;;;15.20;99.90;;;;;;6071770;23;20026;-89
2023/05/14 14:28:34;;;;;;;7.55;6.22;;;15.20;99.90;;;;;;6072612;23;20027;-87
2023/05/14 14:31:21;;;;;;;6.70;5.93;;;15.30;99.90;;;;;;6075374;23;20109;-88
2023/05/14 14:34:10;;;;;;;6.50;5.75;;;15.80;99.90;;;;;;6095277;23;20026;-91
2023/05/14 14:36:57;;;;;;;7.72;5.55;;;16.20;99.90;;;;;;6078126;23;20026;-87